Terminal Aerodrome Forecast
Issued by NWS

Home | Current Version | Previous Version | Text Only | Print | Product List | Glossary On
Versions: 1 2 3 4 5 6 7 8 9 10 11 12 13 14 15 16 17 18 19 20 21
000
FTUS46 KSEW 211100
TAFBLI
TAF
KBLI 211120Z 2112/2212 00000KT 3SM BR SCT001
      TEMPO 2112/2115 1/2SM FG VV001
     FM211600 VRB03KT P6SM SKC
     FM212000 20006KT P6SM SKC
     FM220300 15004KT P6SM FEW100=

USA.gov is the U.S. government's official web portal to all federal, state and local government web resources and services.